FCO weather

Leonardo da Vinci–Fiumicino Airport
Rome, Lazio, Italy

Public forecast

Using degrees Celsius for public forecast. Weather courtesy of forecast.io.

METAR (pilot weather report)

Retrieved 2017/05/23 20:20 UTC (0 seconds ago):

LIRF 232020Z 23005KT CAVOK 20/15 Q1018 NOSIG

TAF (pilot weather forecast)

Retrieved 2017/05/23 18:21 UTC (2 hours ago):

TAF LIRF 231700Z 2318/2424 VRB05KT 9999 FEW030 BECMG 2407/2409 26012KT BECMG 2418/2420 VRB05KT